Time;durP1;ratioP1;P1;durP2;ratioP2;P2;SDS_P1;SDS_P2;PMS_P1;PMS_P2;Temp;Humidity;BMP_temperature;BMP_pressure;BME280_temperature;BME280_humidity;BME280_pressure;Samples;Min_cycle;Max_cycle;Signal;HPM_P1;HPM_P2
2022/10/06 00:01:08;;;;;;;;;;;20.20;99.90;;;;;;5027740;28;19928;-64
2022/10/06 00:03:37;;;;;;;;;;;20.20;99.90;;;;;;5022118;28;19936;-65
2022/10/06 00:06:04;;;;;;;;;;;20.20;99.90;;;;;;5015408;28;20301;-65
2022/10/06 00:08:32;;;;;;;;;;;20.20;99.90;;;;;;5010837;28;20316;-66
2022/10/06 00:11:00;;;;;;;;;;;20.20;99.90;;;;;;5012076;28;19926;-66
2022/10/06 00:13:27;;;;;;;;;;;20.20;99.90;;;;;;5012520;28;19925;-64
2022/10/06 00:15:54;;;;;;;;;;;20.20;99.90;;;;;;5023995;28;20205;-66
2022/10/06 00:18:22;;;;;;;;;;;20.20;99.90;;;;;;5022084;28;19932;-67
2022/10/06 00:20:52;;;;;;;;;;;20.10;99.90;;;;;;5009308;28;20389;-65
2022/10/06 00:23:19;;;;;;;;;;;20.20;99.90;;;;;;5024682;28;19936;-65
2022/10/06 00:25:47;;;;;;;;;;;20.20;99.90;;;;;;5020104;28;19936;-64
2022/10/06 00:28:14;;;;;;;;;;;20.10;99.90;;;;;;5012749;28;19929;-66
2022/10/06 00:30:41;;;;;;;;;;;20.10;99.90;;;;;;5017316;28;20328;-66
2022/10/06 00:33:10;;;;;;;;;;;20.20;99.90;;;;;;5024533;28;20372;-65
2022/10/06 00:35:37;;;;;;;;;;;20.10;99.90;;;;;;5015744;28;19936;-64
2022/10/06 00:38:04;;;;;;;;;;;20.10;99.90;;;;;;5007039;28;19926;-65
2022/10/06 00:40:31;;;;;;;;;;;20.10;99.90;;;;;;5016527;28;19928;-68
2022/10/06 00:43:00;;;;;;;;;;;20.10;99.90;;;;;;5026494;28;19929;-64
2022/10/06 00:45:30;;;;;;;;;;;20.10;99.90;;;;;;5026029;28;19936;-65
2022/10/06 00:47:59;;;;;;;;;;;20.10;99.90;;;;;;5015542;28;20301;-67
2022/10/06 00:50:26;;;;;;;;;;;20.10;99.90;;;;;;5009117;28;19930;-65
2022/10/06 00:52:54;;;;;;;;;;;20.10;99.90;;;;;;5018401;28;20317;-66
2022/10/06 00:55:21;;;;;;;;;;;20.10;99.90;;;;;;5024435;28;19929;-67
2022/10/06 00:57:49;;;;;;;;;;;20.10;99.90;;;;;;5021916;28;20472;-66
2022/10/06 01:00:16;;;;;;;;;;;20.10;99.90;;;;;;5026769;28;19933;-66
2022/10/06 01:02:56;;;;;;;;;;;20.00;99.90;;;;;;5009744;28;20084;-65
2022/10/06 01:05:29;;;;;;;;;;;20.10;99.90;;;;;;5026750;28;19929;-66
2022/10/06 01:07:56;;;;;;;;;;;20.10;99.90;;;;;;5023968;28;20400;-69
2022/10/06 01:10:23;;;;;;;;;;;20.00;99.90;;;;;;5025162;28;19929;-64
2022/10/06 01:12:51;;;;;;;;;;;20.00;99.90;;;;;;5010328;28;19937;-67
2022/10/06 01:15:20;;;;;;;;;;;20.00;99.90;;;;;;5007008;28;20287;-66
2022/10/06 01:17:56;;;;;;;;;;;20.00;99.90;;;;;;5022143;28;19940;-66
2022/10/06 01:20:23;;;;;;;;;;;20.00;99.90;;;;;;5010474;28;19930;-65
2022/10/06 01:23:09;;;;;;;;;;;20.00;99.90;;;;;;5014957;28;19929;-66
2022/10/06 01:25:36;;;;;;;;;;;20.00;99.90;;;;;;5020052;28;19936;-66
2022/10/06 01:28:04;;;;;;;;;;;20.00;99.90;;;;;;5019905;28;20226;-66
2022/10/06 01:30:37;;;;;;;;;;;20.00;99.90;;;;;;5018439;28;19940;-65
2022/10/06 01:33:05;;;;;;;;;;;20.00;99.90;;;;;;5009672;28;19945;-66
2022/10/06 01:35:32;;;;;;;;;;;20.00;99.90;;;;;;5013275;28;19932;-65
2022/10/06 01:38:00;;;;;;;;;;;20.00;99.90;;;;;;5012932;28;19926;-65
2022/10/06 01:40:29;;;;;;;;;;;20.00;99.90;;;;;;5023038;28;19936;-64
2022/10/06 01:42:59;;;;;;;;;;;20.00;99.90;;;;;;5017486;28;19930;-66
2022/10/06 01:45:27;;;;;;;;;;;20.00;99.90;;;;;;5022057;28;19933;-65
2022/10/06 01:47:54;;;;;;;;;;;20.00;99.90;;;;;;5023053;28;19929;-65
2022/10/06 01:50:21;;;;;;;;;;;20.00;99.90;;;;;;4995428;28;20339;-65
2022/10/06 01:52:48;;;;;;;;;;;20.00;99.90;;;;;;5023882;28;19936;-65
2022/10/06 01:55:16;;;;;;;;;;;20.00;99.90;;;;;;5019782;28;19930;-66
2022/10/06 01:57:43;;;;;;;;;;;20.00;99.90;;;;;;5018691;28;19936;-66
2022/10/06 02:00:11;;;;;;;;;;;20.00;99.90;;;;;;5021602;28;20428;-67
2022/10/06 02:02:39;;;;;;;;;;;20.00;99.90;;;;;;5013329;28;19936;-65
2022/10/06 02:05:06;;;;;;;;;;;20.00;99.90;;;;;;5014098;28;19929;-68
2022/10/06 02:07:35;;;;;;;;;;;20.00;99.90;;;;;;5012818;28;20297;-65
2022/10/06 02:10:04;;;;;;;;;;;19.90;99.90;;;;;;5011779;28;20409;-67
2022/10/06 02:12:33;;;;;;;;;;;19.90;99.90;;;;;;5026428;28;19933;-65
2022/10/06 02:15:01;;;;;;;;;;;19.90;99.90;;;;;;5008752;28;19988;-67
2022/10/06 02:17:28;;;;;;;;;;;19.90;99.90;;;;;;5013719;28;19929;-66
2022/10/06 02:19:55;;;;;;;;;;;19.90;99.90;;;;;;5013981;28;19925;-67
2022/10/06 02:22:22;;;;;;;;;;;19.90;99.90;;;;;;5016001;28;20519;-66
2022/10/06 02:24:50;;;;;;;;;;;19.90;99.90;;;;;;5018797;28;19929;-67
2022/10/06 02:27:17;;;;;;;;;;;19.90;99.90;;;;;;5011018;28;19929;-66
2022/10/06 02:29:44;;;;;;;;;;;19.90;99.90;;;;;;5006335;28;19929;-66
2022/10/06 02:32:12;;;;;;;;;;;19.90;99.90;;;;;;5017152;28;20414;-65
2022/10/06 02:34:40;;;;;;;;;;;19.90;99.90;;;;;;5018219;28;19932;-65
2022/10/06 02:37:07;;;;;;;;;;;19.90;99.90;;;;;;5025102;28;19932;-66
2022/10/06 02:39:34;;;;;;;;;;;19.90;99.90;;;;;;5017157;28;19925;-65
2022/10/06 02:42:02;;;;;;;;;;;19.90;99.90;;;;;;5012749;28;19956;-66
2022/10/06 02:44:30;;;;;;;;;;;19.90;99.90;;;;;;5030319;28;19925;-67
2022/10/06 02:46:57;;;;;;;;;;;19.90;99.90;;;;;;5011294;28;19925;-65
2022/10/06 02:49:24;;;;;;;;;;;19.90;99.90;;;;;;5005452;28;19937;-65
2022/10/06 02:51:52;;;;;;;;;;;19.90;99.90;;;;;;5011107;28;19926;-68
2022/10/06 02:54:19;;;;;;;;;;;19.90;99.90;;;;;;5022504;28;19929;-65
2022/10/06 02:56:48;;;;;;;;;;;19.90;99.90;;;;;;5005774;28;19925;-66
2022/10/06 02:59:16;;;;;;;;;;;19.90;99.90;;;;;;5011617;28;19932;-63
2022/10/06 03:01:44;;;;;;;;;;;19.90;99.90;;;;;;5037189;28;19936;-68
2022/10/06 03:04:15;;;;;;;;;;;19.90;99.90;;;;;;5031175;28;19932;-65
2022/10/06 03:06:42;;;;;;;;;;;19.90;99.90;;;;;;5034019;28;19944;-67
2022/10/06 03:09:21;;;;;;;;;;;19.80;99.90;;;;;;5032814;28;19930;-65
2022/10/06 03:11:50;;;;;;;;;;;19.90;99.90;;;;;;5043335;28;19929;-68
2022/10/06 03:14:28;;;;;;;;;;;19.90;99.90;;;;;;5032040;28;19933;-67
2022/10/06 03:16:58;;;;;;;;;;;19.80;99.90;;;;;;5033828;28;19951;-66
2022/10/06 03:19:28;;;;;;;;;;;19.80;99.90;;;;;;5030712;28;20491;-65
2022/10/06 03:21:55;;;;;;;;;;;19.90;99.90;;;;;;5028093;28;19925;-67
2022/10/06 03:24:34;;;;;;;;;;;19.80;99.90;;;;;;5021111;28;19929;-65
2022/10/06 03:27:02;;;;;;;;;;;19.80;99.90;;;;;;5015204;28;19930;-64
2022/10/06 03:29:29;;;;;;;;;;;19.80;99.90;;;;;;5029242;28;19929;-66
2022/10/06 03:31:57;;;;;;;;;;;19.80;99.90;;;;;;5024002;28;20039;-65
2022/10/06 03:34:25;;;;;;;;;;;19.80;99.90;;;;;;5013289;28;19926;-67
2022/10/06 03:36:53;;;;;;;;;;;19.80;99.90;;;;;;5015921;28;19929;-66
2022/10/06 03:39:23;;;;;;;;;;;19.80;99.90;;;;;;5018920;28;19933;-67
2022/10/06 03:41:50;;;;;;;;;;;19.80;99.90;;;;;;5016795;28;20396;-67
2022/10/06 03:44:17;;;;;;;;;;;19.80;99.90;;;;;;5017538;28;19936;-66
2022/10/06 03:46:45;;;;;;;;;;;19.80;99.90;;;;;;5015446;28;19925;-65
2022/10/06 03:49:13;;;;;;;;;;;19.80;99.90;;;;;;5023989;28;19929;-65
2022/10/06 03:51:41;;;;;;;;;;;19.80;99.90;;;;;;4995715;28;20255;-66
2022/10/06 03:54:13;;;;;;;;;;;19.80;99.90;;;;;;5021877;28;19972;-66
2022/10/06 03:56:43;;;;;;;;;;;19.80;99.90;;;;;;5021155;28;19967;-68
2022/10/06 03:59:13;;;;;;;;;;;19.80;99.90;;;;;;5009797;28;20305;-65
2022/10/06 04:01:43;;;;;;;;;;;19.80;99.90;;;;;;5021920;28;19933;-67
2022/10/06 04:04:13;;;;;;;;;;;19.90;99.90;;;;;;5009247;28;20267;-65
2022/10/06 04:06:43;;;;;;;;;;;19.90;99.90;;;;;;5006970;28;19929;-66
2022/10/06 04:09:13;;;;;;;;;;;19.90;99.90;;;;;;5023960;28;20349;-66
2022/10/06 04:11:43;;;;;;;;;;;19.90;99.90;;;;;;5020566;28;19933;-66
2022/10/06 04:14:13;;;;;;;;;;;19.90;99.90;;;;;;5017470;28;19930;-66
2022/10/06 04:16:46;;;;;;;;;;;19.90;99.90;;;;;;5020087;28;19991;-66
2022/10/06 04:19:16;;;;;;;;;;;19.90;99.90;;;;;;5009571;28;20005;-66
2022/10/06 04:21:49;;;;;;;;;;;19.90;99.90;;;;;;5025946;28;19929;-66
2022/10/06 04:24:20;;;;;;;;;;;19.90;99.90;;;;;;5022085;28;19953;-66
2022/10/06 04:26:48;;;;;;;;;;;19.90;99.90;;;;;;5021214;28;20324;-66
2022/10/06 04:29:17;;;;;;;;;;;19.90;99.90;;;;;;5023855;28;19929;-63
2022/10/06 04:31:49;;;;;;;;;;;19.90;99.90;;;;;;5021844;28;19925;-66
2022/10/06 04:34:30;;;;;;;;;;;19.90;99.90;;;;;;5021879;28;20298;-67
2022/10/06 04:36:58;;;;;;;;;;;20.00;99.90;;;;;;5023626;28;20400;-65
2022/10/06 04:39:25;;;;;;;;;;;19.90;99.90;;;;;;5023003;28;19925;-66
2022/10/06 04:41:52;;;;;;;;;;;20.00;99.90;;;;;;5021155;28;19925;-68
2022/10/06 04:44:27;;;;;;;;;;;20.00;99.90;;;;;;5015126;28;20300;-65
2022/10/06 04:46:57;;;;;;;;;;;20.00;99.90;;;;;;5018906;28;20249;-66
2022/10/06 04:49:24;;;;;;;;;;;20.00;99.90;;;;;;5018106;28;19936;-66
2022/10/06 04:51:53;;;;;;;;;;;20.00;99.90;;;;;;5018454;28;19929;-65
2022/10/06 04:54:20;;;;;;;;;;;19.90;99.90;;;;;;5014791;28;19929;-65
2022/10/06 04:56:53;;;;;;;;;;;20.00;99.90;;;;;;5015711;28;20155;-65
2022/10/06 05:00:21;;;;;;;;;;;19.90;99.90;;;;;;5013270;28;19928;-68
2022/10/06 05:02:11;;;;;;;;;;;19.90;99.90;;;;;;5019077;28;20313;-66
2022/10/06 05:04:40;;;;;;;;;;;19.90;99.90;;;;;;5006624;28;19932;-65
2022/10/06 05:07:07;;;;;;;;;;;19.90;99.90;;;;;;5018157;28;19926;-67
2022/10/06 05:09:34;;;;;;;;;;;19.90;99.90;;;;;;5018566;28;19936;-66
2022/10/06 05:12:02;;;;;;;;;;;19.90;99.90;;;;;;5035916;28;20268;-67
2022/10/06 05:14:32;;;;;;;;;;;19.90;99.90;;;;;;5028829;28;19940;-66
2022/10/06 05:16:59;;;;;;;;;;;19.90;99.90;;;;;;5010529;28;19936;-66
2022/10/06 05:19:28;;;;;;;;;;;19.90;99.90;;;;;;5010344;28;19956;-66
2022/10/06 05:21:56;;;;;;;;;;;19.90;99.90;;;;;;5016883;28;19940;-67
2022/10/06 05:24:26;;;;;;;;;;;19.90;99.90;;;;;;5021308;28;19930;-66
2022/10/06 05:26:53;;;;;;;;;;;19.90;99.90;;;;;;5010425;28;19940;-67
2022/10/06 05:29:27;;;;;;;;;;;19.90;99.90;;;;;;5021067;28;20340;-65
2022/10/06 05:31:54;;;;;;;;;;;19.90;99.90;;;;;;5017060;28;19929;-66
2022/10/06 05:34:22;;;;;;;;;;;19.90;99.90;;;;;;5011442;28;19932;-66
2022/10/06 05:36:50;;;;;;;;;;;19.90;99.90;;;;;;5017380;28;19909;-65
2022/10/06 05:39:17;;;;;;;;;;;19.90;99.90;;;;;;5010533;28;19934;-66
2022/10/06 05:41:48;;;;;;;;;;;19.90;99.90;;;;;;5017853;28;19929;-66
2022/10/06 05:44:16;;;;;;;;;;;19.80;99.90;;;;;;5023355;28;19925;-66
2022/10/06 05:46:44;;;;;;;;;;;19.90;99.90;;;;;;5017824;28;20328;-66
2022/10/06 05:49:12;;;;;;;;;;;19.80;99.90;;;;;;5018469;28;19930;-65
2022/10/06 05:51:51;;;;;;;;;;;19.80;99.90;;;;;;5017231;28;19928;-66
2022/10/06 05:54:23;;;;;;;;;;;19.80;99.90;;;;;;5019979;28;19936;-65
2022/10/06 05:56:50;;;;;;;;;;;19.80;99.90;;;;;;5012705;28;20312;-66
2022/10/06 05:59:17;;;;;;;;;;;19.80;99.90;;;;;;5021385;28;19940;-65
2022/10/06 06:01:45;;;;;;;;;;;19.80;99.90;;;;;;5023048;28;19929;-67
2022/10/06 06:04:20;;;;;;;;;;;19.90;99.90;;;;;;5019934;28;19936;-65
2022/10/06 06:06:52;;;;;;;;;;;19.90;99.90;;;;;;5032809;28;20290;-67
2022/10/06 06:09:21;;;;;;;;;;;19.80;99.90;;;;;;5022875;28;20020;-67
2022/10/06 06:11:51;;;;;;;;;;;19.90;99.90;;;;;;5023633;28;19925;-66
2022/10/06 06:17:20;;;;;;;;;;;19.90;99.90;;;;;;5018136;28;20424;-65
2022/10/06 06:19:47;;;;;;;;;;;19.90;99.90;;;;;;5021899;28;19944;-66
2022/10/06 06:22:15;;;;;;;;;;;19.90;99.90;;;;;;5025734;28;19925;-67
2022/10/06 06:24:44;;;;;;;;;;;19.90;99.90;;;;;;5016899;28;19925;-66
2022/10/06 06:27:13;;;;;;;;;;;19.90;99.90;;;;;;5039133;28;20389;-66
2022/10/06 06:29:40;;;;;;;;;;;19.90;99.90;;;;;;5023975;28;19925;-66
2022/10/06 06:32:08;;;;;;;;;;;19.90;99.90;;;;;;5016898;28;20028;-67
2022/10/06 06:34:36;;;;;;;;;;;19.90;99.90;;;;;;5030082;28;19925;-66
2022/10/06 06:37:03;;;;;;;;;;;19.90;99.90;;;;;;5026155;28;19937;-67
2022/10/06 06:39:37;;;;;;;;;;;19.90;99.90;;;;;;5008477;28;19929;-66
2022/10/06 06:42:07;;;;;;;;;;;19.90;99.90;;;;;;5017345;28;19936;-64
2022/10/06 06:44:37;;;;;;;;;;;19.90;99.90;;;;;;5010278;28;19934;-65
2022/10/06 06:47:11;;;;;;;;;;;19.90;99.90;;;;;;5013126;28;19925;-66
2022/10/06 06:49:39;;;;;;;;;;;19.90;99.90;;;;;;5025248;28;19929;-67
2022/10/06 06:52:07;;;;;;;;;;;19.90;99.90;;;;;;5015571;28;19933;-66
2022/10/06 06:54:39;;;;;;;;;;;19.90;99.90;;;;;;5021967;28;20393;-66
2022/10/06 06:57:11;;;;;;;;;;;19.90;99.90;;;;;;5020758;28;20612;-68
2022/10/06 06:59:38;;;;;;;;;;;19.90;99.90;;;;;;5014029;28;20412;-68
2022/10/06 07:02:10;;;;;;;;;;;19.90;99.90;;;;;;5017874;28;20491;-66
2022/10/06 07:04:42;;;;;;;;;;;19.90;99.90;;;;;;5015747;28;19929;-66
2022/10/06 07:07:12;;;;;;;;;;;19.90;99.90;;;;;;5027935;28;20305;-66
2022/10/06 07:09:40;;;;;;;;;;;19.90;99.90;;;;;;5015330;28;19925;-65
2022/10/06 07:12:10;;;;;;;;;;;19.90;99.90;;;;;;5018470;28;20313;-66
2022/10/06 07:25:05;;;;;;;;;;;19.90;99.90;;;;;;5019405;28;19929;-66
2022/10/06 07:25:47;;;;;;;;;;;19.90;99.90;;;;;;5022789;28;19925;-66
2022/10/06 07:28:15;;;;;;;;;;;20.00;99.90;;;;;;5044107;28;19933;-67
2022/10/06 07:30:43;;;;;;;;;;;19.90;99.90;;;;;;5024359;28;19940;-67
2022/10/06 07:33:18;;;;;;;;;;;19.90;99.90;;;;;;5015273;28;19933;-66
2022/10/06 07:35:46;;;;;;;;;;;19.90;99.90;;;;;;5021467;28;19940;-67
2022/10/06 07:38:17;;;;;;;;;;;20.00;99.90;;;;;;5016799;28;19929;-65
2022/10/06 07:40:52;;;;;;;;;;;19.90;99.90;;;;;;5020210;28;19937;-68
2022/10/06 07:43:40;;;;;;;;;;;19.90;99.90;;;;;;5012995;28;20660;-65
2022/10/06 07:46:08;;;;;;;;;;;20.00;99.90;;;;;;5017543;28;19929;-66
2022/10/06 07:48:39;;;;;;;;;;;20.00;99.90;;;;;;5026894;28;19929;-66
2022/10/06 07:51:14;;;;;;;;;;;20.00;99.90;;;;;;5021923;28;19925;-67
2022/10/06 07:53:48;;;;;;;;;;;19.90;99.90;;;;;;5012503;28;19933;-67
2022/10/06 07:56:41;;;;;;;;;;;19.90;99.90;;;;;;5011311;28;19926;-65
2022/10/06 07:59:09;;;;;;;;;;;19.90;99.90;;;;;;5013024;28;19936;-66
2022/10/06 08:01:37;;;;;;;;;;;19.90;99.90;;;;;;5023665;28;20427;-66
2022/10/06 08:04:05;;;;;;;;;;;20.00;99.90;;;;;;5025694;28;19940;-66
2022/10/06 08:06:33;;;;;;;;;;;19.90;99.90;;;;;;5022220;28;19925;-67
2022/10/06 08:09:00;;;;;;;;;;;19.90;99.90;;;;;;5012824;28;19932;-65
2022/10/06 08:11:28;;;;;;;;;;;19.90;99.90;;;;;;5014391;28;19933;-65
2022/10/06 08:13:57;;;;;;;;;;;19.90;99.90;;;;;;5013811;28;19937;-65
2022/10/06 08:16:28;;;;;;;;;;;20.00;99.90;;;;;;5004808;28;19945;-66
2022/10/06 08:18:57;;;;;;;;;;;19.90;99.90;;;;;;5021403;28;19929;-66
2022/10/06 08:21:29;;;;;;;;;;;19.90;99.90;;;;;;5022467;28;19929;-64
2022/10/06 08:23:57;;;;;;;;;;;20.00;99.90;;;;;;5019112;28;19936;-67
2022/10/06 08:26:25;;;;;;;;;;;20.00;99.90;;;;;;5009756;28;19930;-66
2022/10/06 08:28:56;;;;;;;;;;;20.00;99.90;;;;;;5018487;28;19929;-64
2022/10/06 08:31:23;;;;;;;;;;;20.00;99.90;;;;;;5023122;28;19936;-66
2022/10/06 08:33:55;;;;;;;;;;;20.00;99.90;;;;;;5010250;28;20401;-65
2022/10/06 08:36:25;;;;;;;;;;;20.10;99.90;;;;;;5012620;28;19926;-66
2022/10/06 08:38:57;;;;;;;;;;;20.10;99.90;;;;;;5017491;28;20334;-67
2022/10/06 08:41:26;;;;;;;;;;;20.10;99.90;;;;;;5018766;28;19929;-65
2022/10/06 08:44:01;;;;;;;;;;;20.10;99.90;;;;;;5013747;28;20467;-66
2022/10/06 08:46:31;;;;;;;;;;;20.20;99.90;;;;;;5020487;28;20483;-65
2022/10/06 08:48:58;;;;;;;;;;;20.20;99.90;;;;;;5025220;28;20232;-68
2022/10/06 08:51:35;;;;;;;;;;;20.20;99.90;;;;;;5010059;28;19929;-65
2022/10/06 08:54:05;;;;;;;;;;;20.20;99.90;;;;;;5012125;28;19932;-66
2022/10/06 08:56:35;;;;;;;;;;;20.20;99.90;;;;;;5017151;28;19940;-64
2022/10/06 08:59:03;;;;;;;;;;;20.20;99.90;;;;;;5008523;28;19929;-66
2022/10/06 09:01:40;;;;;;;;;;;20.20;99.90;;;;;;5017281;28;19925;-66
2022/10/06 09:04:09;;;;;;;;;;;20.20;99.90;;;;;;5014612;28;19953;-66
2022/10/06 09:06:48;;;;;;;;;;;20.30;99.90;;;;;;5023895;28;19925;-65
2022/10/06 09:09:19;;;;;;;;;;;20.30;99.90;;;;;;5022965;28;19926;-66
2022/10/06 09:11:55;;;;;;;;;;;20.20;99.90;;;;;;5023341;28;19936;-64
2022/10/06 09:14:42;;;;;;;;;;;20.20;99.90;;;;;;5015296;28;19929;-66
2022/10/06 09:17:11;;;;;;;;;;;20.20;99.90;;;;;;5025479;28;19936;-66
2022/10/06 09:19:52;;;;;;;;;;;20.20;99.90;;;;;;5023360;28;19929;-65
2022/10/06 09:22:21;;;;;;;;;;;20.20;99.90;;;;;;5026466;28;19929;-66
2022/10/06 09:24:53;;;;;;;;;;;20.20;99.90;;;;;;5035532;28;20389;-67
2022/10/06 09:27:22;;;;;;;;;;;20.20;99.90;;;;;;5025780;28;19932;-66
2022/10/06 09:29:50;;;;;;;;;;;20.20;99.90;;;;;;5023840;28;19926;-65
2022/10/06 09:32:18;;;;;;;;;;;20.20;99.90;;;;;;5029190;28;19937;-67
2022/10/06 09:34:50;;;;;;;;;;;20.20;99.90;;;;;;5027506;28;20028;-67
2022/10/06 09:37:18;;;;;;;;;;;20.20;99.90;;;;;;5032332;28;19929;-67
2022/10/06 09:39:49;;;;;;;;;;;20.20;99.90;;;;;;5021302;28;19937;-65
2022/10/06 09:42:19;;;;;;;;;;;20.20;99.90;;;;;;5026175;28;20398;-67
2022/10/06 09:44:49;;;;;;;;;;;20.20;99.90;;;;;;5032356;28;19948;-67
2022/10/06 09:47:33;;;;;;;;;;;20.20;99.90;;;;;;5034862;28;19931;-66
2022/10/06 09:50:14;;;;;;;;;;;20.20;99.90;;;;;;5015937;28;20317;-64
2022/10/06 09:52:51;;;;;;;;;;;20.20;99.90;;;;;;5007010;28;19929;-65
2022/10/06 09:55:18;;;;;;;;;;;20.20;99.90;;;;;;5011188;28;19937;-65
2022/10/06 09:57:49;;;;;;;;;;;20.20;99.90;;;;;;5017915;28;19933;-66
2022/10/06 10:00:26;;;;;;;;;;;20.20;99.90;;;;;;5020819;28;19929;-66
2022/10/06 10:03:11;;;;;;;;;;;20.20;99.90;;;;;;5020009;28;20263;-66
2022/10/06 10:05:44;;;;;;;;;;;20.20;99.90;;;;;;5011096;28;20292;-66
2022/10/06 10:08:11;;;;;;;;;;;20.20;99.90;;;;;;5012250;28;20345;-67
2022/10/06 10:10:39;;;;;;;;;;;20.30;99.90;;;;;;5008279;28;19936;-64
2022/10/06 10:13:17;;;;;;;;;;;20.20;99.90;;;;;;5020738;28;20286;-66
2022/10/06 10:15:52;;;;;;;;;;;20.20;99.90;;;;;;5024326;28;20180;-66
2022/10/06 10:18:25;;;;;;;;;;;20.30;99.90;;;;;;5015120;28;20722;-66
2022/10/06 10:21:03;;;;;;;;;;;20.20;99.90;;;;;;5020376;28;19926;-65
2022/10/06 10:23:33;;;;;;;;;;;20.20;99.90;;;;;;5016486;28;19926;-65
2022/10/06 10:26:16;;;;;;;;;;;20.30;99.90;;;;;;5023953;28;20420;-65
2022/10/06 10:28:50;;;;;;;;;;;20.20;99.90;;;;;;4993955;28;19929;-65
2022/10/06 10:31:29;;;;;;;;;;;20.30;99.90;;;;;;5022441;28;19952;-64
2022/10/06 10:34:02;;;;;;;;;;;20.20;99.90;;;;;;5010792;28;19929;-68
2022/10/06 10:36:42;;;;;;;;;;;20.20;99.90;;;;;;5001927;28;19952;-68
2022/10/06 10:39:15;;;;;;;;;;;20.30;99.90;;;;;;5011220;28;19936;-66
2022/10/06 10:41:48;;;;;;;;;;;20.20;99.90;;;;;;5013285;28;19932;-68
2022/10/06 10:44:36;;;;;;;;;;;20.20;99.90;;;;;;4994003;28;20314;-65
2022/10/06 10:47:09;;;;;;;;;;;20.30;99.90;;;;;;5007486;28;19926;-65
2022/10/06 10:49:38;;;;;;;;;;;20.20;99.90;;;;;;5012131;28;19925;-66
2022/10/06 10:52:10;;;;;;;;;;;20.20;99.90;;;;;;5013526;28;19929;-67
2022/10/06 10:54:37;;;;;;;;;;;20.30;99.90;;;;;;5006659;28;20404;-66
2022/10/06 10:57:10;;;;;;;;;;;20.20;99.90;;;;;;5027913;28;19929;-65
2022/10/06 10:59:43;;;;;;;;;;;20.20;99.90;;;;;;5019336;28;19929;-66
2022/10/06 11:02:12;;;;;;;;;;;20.20;99.90;;;;;;5023495;28;19929;-63
2022/10/06 11:04:41;;;;;;;;;;;20.30;99.90;;;;;;5020855;28;19936;-66
2022/10/06 11:07:43;;;;;;;;;;;20.20;99.90;;;;;;5002369;28;19930;-66
2022/10/06 11:10:14;;;;;;;;;;;20.20;99.90;;;;;;4982593;28;19934;-63
2022/10/06 11:12:45;;;;;;;;;;;20.20;99.90;;;;;;5000764;28;19926;-65
2022/10/06 11:15:30;;;;;;;;;;;20.20;99.90;;;;;;5013931;28;19949;-64
2022/10/06 11:18:03;;;;;;;;;;;20.20;99.90;;;;;;5011626;28;20304;-66
2022/10/06 11:20:41;;;;;;;;;;;20.20;99.90;;;;;;5019080;28;19933;-65
2022/10/06 11:23:21;;;;;;;;;;;20.20;99.90;;;;;;5016008;28;19930;-64
2022/10/06 11:25:56;;;;;;;;;;;20.20;99.90;;;;;;5024952;28;20306;-65
2022/10/06 11:28:26;;;;;;;;;;;20.20;99.90;;;;;;5022131;28;19929;-61
2022/10/06 11:31:16;;;;;;;;;;;20.20;99.90;;;;;;5017798;28;19929;-65
2022/10/06 11:33:51;;;;;;;;;;;20.20;99.90;;;;;;5016405;28;20399;-66
2022/10/06 11:36:33;;;;;;;;;;;20.20;99.90;;;;;;5021708;28;19929;-65
2022/10/06 11:39:15;;;;;;;;;;;20.20;99.90;;;;;;5008774;28;19998;-66
2022/10/06 11:41:44;;;;;;;;;;;20.20;99.90;;;;;;5021500;28;19926;-66
2022/10/06 11:44:12;;;;;;;;;;;20.20;99.90;;;;;;5025685;28;19930;-68
2022/10/06 11:46:42;;;;;;;;;;;20.20;99.90;;;;;;5028922;28;19936;-66
2022/10/06 11:49:31;;;;;;;;;;;20.20;99.90;;;;;;5022294;28;20176;-68
2022/10/06 11:52:04;;;;;;;;;;;20.20;99.90;;;;;;5008444;28;20418;-65
2022/10/06 11:54:44;;;;;;;;;;;20.20;99.90;;;;;;5021398;28;20417;-66
2022/10/06 11:57:25;;;;;;;;;;;20.20;99.90;;;;;;5026176;28;19929;-65
2022/10/06 12:00:03;;;;;;;;;;;20.20;99.90;;;;;;5006496;28;19932;-66
2022/10/06 12:02:37;;;;;;;;;;;20.20;99.90;;;;;;5034125;28;19929;-63
2022/10/06 12:05:08;;;;;;;;;;;20.20;99.90;;;;;;5026235;28;19925;-66
2022/10/06 12:07:55;;;;;;;;;;;20.20;99.90;;;;;;5014657;28;19930;-66
2022/10/06 12:10:28;;;;;;;;;;;20.20;99.90;;;;;;5017192;28;19925;-67
2022/10/06 12:13:34;;;;;;;;;;;20.20;99.90;;;;;;5014339;28;20406;-66
2022/10/06 12:16:21;;;;;;;;;;;20.20;99.90;;;;;;4977733;28;19930;-66
2022/10/06 12:19:30;;;;;;;;;;;20.20;99.90;;;;;;4981440;28;19930;-67
2022/10/06 12:21:59;;;;;;;;;;;20.20;99.90;;;;;;4978459;28;20250;-67
2022/10/06 12:24:42;;;;;;;;;;;20.20;99.90;;;;;;4984988;28;19926;-64
2022/10/06 12:27:19;;;;;;;;;;;20.20;99.90;;;;;;4964649;28;19933;-68
2022/10/06 12:29:51;;;;;;;;;;;20.20;99.90;;;;;;4980106;28;19925;-67
2022/10/06 12:32:28;;;;;;;;;;;20.20;99.90;;;;;;4980509;28;20332;-66
2022/10/06 12:34:55;;;;;;;;;;;20.20;99.90;;;;;;4977607;28;19925;-67
2022/10/06 12:37:41;;;;;;;;;;;20.20;99.90;;;;;;4981834;28;19929;-66
2022/10/06 12:40:27;;;;;;;;;;;20.20;99.90;;;;;;4975585;28;19953;-67
2022/10/06 12:43:08;;;;;;;;;;;20.30;99.90;;;;;;4983892;28;19937;-64
2022/10/06 12:45:36;;;;;;;;;;;20.30;99.90;;;;;;4981867;28;20313;-65
2022/10/06 12:48:14;;;;;;;;;;;20.20;99.90;;;;;;5020164;28;19929;-66
2022/10/06 12:50:42;;;;;;;;;;;20.30;99.90;;;;;;5025907;28;19929;-65
2022/10/06 12:53:16;;;;;;;;;;;20.20;99.90;;;;;;5018145;28;19949;-66
2022/10/06 12:55:48;;;;;;;;;;;20.30;99.90;;;;;;5014494;28;19948;-65
2022/10/06 12:58:19;;;;;;;;;;;20.30;99.90;;;;;;5022349;28;19940;-63
2022/10/06 13:00:46;;;;;;;;;;;20.30;99.90;;;;;;5007784;28;20392;-65
2022/10/06 13:03:18;;;;;;;;;;;20.30;99.90;;;;;;5017996;28;19925;-64
2022/10/06 13:05:50;;;;;;;;;;;20.40;99.90;;;;;;5022921;28;19925;-64
2022/10/06 13:08:21;;;;;;;;;;;20.40;99.90;;;;;;5020174;28;19933;-64
2022/10/06 13:10:49;;;;;;;;;;;20.40;99.90;;;;;;5012159;28;20312;-65
2022/10/06 13:13:22;;;;;;;;;;;20.40;99.90;;;;;;5026070;28;19929;-66
2022/10/06 13:15:50;;;;;;;;;;;20.40;99.90;;;;;;5013331;28;19929;-65
2022/10/06 13:18:21;;;;;;;;;;;20.40;99.90;;;;;;5021285;28;19940;-64
2022/10/06 13:20:50;;;;;;;;;;;20.50;99.90;;;;;;5020020;28;19945;-65
2022/10/06 13:23:30;;;;;;;;;;;20.50;99.90;;;;;;5017707;28;19930;-64
2022/10/06 13:25:59;;;;;;;;;;;20.50;99.90;;;;;;5023799;22;20310;-65
2022/10/06 13:28:31;;;;;;;;;;;20.50;99.90;;;;;;4993858;28;19937;-65
2022/10/06 13:31:00;;;;;;;;;;;20.50;99.90;;;;;;4995941;28;19937;-65
2022/10/06 13:33:35;;;;;;;;;;;20.60;99.90;;;;;;4984839;28;19930;-65
2022/10/06 13:36:03;;;;;;;;;;;20.60;99.90;;;;;;4990039;28;19933;-66
2022/10/06 13:38:33;;;;;;;;;;;20.60;99.90;;;;;;4996412;28;19937;-65
2022/10/06 13:41:02;;;;;;;;;;;20.60;99.90;;;;;;4993653;28;19926;-65
2022/10/06 13:43:29;;;;;;;;;;;20.60;99.90;;;;;;4979625;28;20392;-66
2022/10/06 13:45:56;;;;;;;;;;;20.50;99.90;;;;;;5003397;28;19956;-65
2022/10/06 13:48:24;;;;;;;;;;;20.50;99.90;;;;;;4991605;28;20355;-66
2022/10/06 13:50:52;;;;;;;;;;;20.50;99.90;;;;;;4985607;28;20416;-65
2022/10/06 13:53:24;;;;;;;;;;;20.40;99.90;;;;;;4990469;28;19930;-65
2022/10/06 13:55:51;;;;;;;;;;;20.40;99.90;;;;;;4990634;28;20005;-65
2022/10/06 13:58:21;;;;;;;;;;;20.40;99.90;;;;;;4983667;28;19934;-65
2022/10/06 14:00:56;;;;;;;;;;;20.40;99.90;;;;;;4974859;28;19937;-65
2022/10/06 14:03:25;;;;;;;;;;;20.40;99.90;;;;;;4983360;28;20405;-65
2022/10/06 14:06:12;;;;;;;;;;;20.30;99.90;;;;;;4989206;28;19926;-65
2022/10/06 14:08:39;;;;;;;;;;;20.30;99.90;;;;;;4979804;28;19930;-65
2022/10/06 14:11:07;;;;;;;;;;;20.30;99.90;;;;;;4986360;28;19949;-66
2022/10/06 14:13:47;;;;;;;;;;;20.30;99.90;;;;;;4999798;28;19934;-63
2022/10/06 14:16:19;;;;;;;;;;;20.30;99.90;;;;;;4978555;28;19934;-66
2022/10/06 14:18:54;;;;;;;;;;;20.30;99.90;;;;;;4996270;28;19952;-65
2022/10/06 14:21:35;;;;;;;;;;;20.30;99.90;;;;;;4995715;28;20365;-65
2022/10/06 14:24:03;;;;;;;;;;;20.30;99.90;;;;;;4976371;28;19930;-63
2022/10/06 14:26:38;;;;;;;;;;;20.30;99.90;;;;;;4980168;28;19933;-67
2022/10/06 14:29:05;;;;;;;;;;;20.30;99.90;;;;;;4986196;28;19926;-64
2022/10/06 14:31:33;;;;;;;;;;;20.30;99.90;;;;;;4990876;28;19925;-65
2022/10/06 14:34:00;;;;;;;;;;;20.30;99.90;;;;;;4980457;28;19926;-65
2022/10/06 14:36:32;;;;;;;;;;;20.30;99.90;;;;;;4989966;28;19953;-66
2022/10/06 14:38:59;;;;;;;;;;;20.30;99.90;;;;;;4987885;28;20044;-66
2022/10/06 14:41:27;;;;;;;;;;;20.30;99.90;;;;;;4984429;28;20036;-65
2022/10/06 14:43:55;;;;;;;;;;;20.30;99.90;;;;;;4985651;28;20164;-65
2022/10/06 14:46:23;;;;;;;;;;;20.30;99.90;;;;;;4986422;28;20840;-65
2022/10/06 14:48:51;;;;;;;;;;;20.30;99.90;;;;;;4991670;28;19956;-67
2022/10/06 14:51:18;;;;;;;;;;;20.30;99.90;;;;;;4992258;28;19937;-65